Time;durP1;ratioP1;P1;durP2;ratioP2;P2;SDS_P1;SDS_P2;PMS_P1;PMS_P2;Temp;Humidity;BMP_temperature;BMP_pressure;BME280_temperature;BME280_humidity;BME280_pressure;Samples;Min_cycle;Max_cycle;Signal;HPM_P1;HPM_P2
2020/12/13 00:01:03;;;;;;;104.20;53.10;;;;;;;0.29;90.34;98206.27;125110;1098;65245;-78
2020/12/13 00:03:29;;;;;;;89.30;50.53;;;;;;;0.27;90.59;98215.09;125188;1100;65217;-78
2020/12/13 00:05:56;;;;;;;93.87;51.10;;;;;;;0.29;90.52;98216.75;125181;1098;65207;-78
2020/12/13 00:08:23;;;;;;;88.80;46.70;;;;;;;0.32;90.21;98208.77;125116;1099;65154;-78
2020/12/13 00:10:49;;;;;;;81.57;44.53;;;;;;;0.34;90.27;98216.55;125164;1098;65168;-77
2020/12/13 00:13:16;;;;;;;90.83;47.83;;;;;;;0.37;90.12;98214.69;125254;1098;65134;-78
2020/12/13 00:15:42;;;;;;;97.17;52.07;;;;;;;0.38;90.53;98221.62;125154;1098;66668;-77
2020/12/13 00:18:09;;;;;;;93.30;48.23;;;;;;;0.39;90.43;98222.47;125234;1098;65137;-77
2020/12/13 00:20:35;;;;;;;89.90;49.42;;;;;;;0.36;90.08;98218.20;125197;1098;65313;-77
2020/12/13 00:23:02;;;;;;;87.50;48.13;;;;;;;0.35;89.93;98229.61;125217;1098;65154;-77
2020/12/13 00:25:28;;;;;;;93.67;50.27;;;;;;;0.35;90.66;98223.52;125155;1098;65226;-77
2020/12/13 00:27:54;;;;;;;83.35;46.85;;;;;;;0.37;90.49;98229.53;125149;1098;65491;-77
2020/12/13 00:30:21;;;;;;;84.27;48.87;;;;;;;0.38;90.32;98234.73;125136;1098;65137;-77
2020/12/13 00:32:47;;;;;;;81.63;46.37;;;;;;;0.39;90.44;98227.71;124782;1100;65134;-77
2020/12/13 00:35:14;;;;;;;95.07;47.50;;;;;;;0.37;90.33;98227.79;125191;1098;65143;-77
2020/12/13 00:37:41;;;;;;;93.83;48.40;;;;;;;0.37;90.58;98233.03;125262;1098;65235;-77
2020/12/13 00:40:08;;;;;;;94.10;49.13;;;;;;;0.41;90.39;98239.84;125146;1098;65118;-77
2020/12/13 00:42:35;;;;;;;99.73;50.17;;;;;;;0.44;90.33;98241.50;124804;1098;65246;-77
2020/12/13 00:45:02;;;;;;;95.90;50.40;;;;;;;0.44;90.34;98237.10;125126;1098;65275;-78
2020/12/13 00:47:28;;;;;;;87.43;46.00;;;;;;;0.42;89.92;98244.19;125144;1098;65240;-78
2020/12/13 00:49:55;;;;;;;81.35;47.10;;;;;;;0.41;90.02;98241.62;124795;1100;65240;-78
2020/12/13 00:52:21;;;;;;;87.70;44.67;;;;;;;0.45;90.66;98251.09;125217;1098;65139;-78
2020/12/13 00:54:47;;;;;;;86.00;45.47;;;;;;;0.47;90.18;98249.23;125243;1098;65182;-78
2020/12/13 00:57:14;;;;;;;87.37;47.13;;;;;;;0.49;90.49;98252.66;125197;1098;65287;-77
2020/12/13 00:59:40;;;;;;;87.23;45.87;;;;;;;0.48;90.58;98248.34;125230;1098;65182;-77
2020/12/13 01:02:06;;;;;;;92.13;44.47;;;;;;;0.48;90.01;98250.13;125258;1098;65176;-77
2020/12/13 01:04:34;;;;;;;88.65;43.70;;;;;;;0.48;90.50;98255.36;125198;1098;65147;-78
2020/12/13 01:07:03;;;;;;;83.07;44.23;;;;;;;0.46;90.05;98255.41;125256;1099;65307;-78
2020/12/13 01:09:29;;;;;;;83.83;43.93;;;;;;;0.44;89.86;98250.20;125223;1098;65233;-78
2020/12/13 01:11:56;;;;;;;74.37;40.17;;;;;;;0.44;90.59;98249.36;125265;1098;66715;-78
2020/12/13 01:14:24;;;;;;;74.40;44.43;;;;;;;0.45;90.09;98251.09;124845;1100;65265;-78
2020/12/13 01:16:56;;;;;;;82.43;47.27;;;;;;;0.49;90.45;98255.28;125251;1098;65156;-78
2020/12/13 01:19:23;;;;;;;80.83;51.07;;;;;;;0.52;90.26;98255.16;125156;1098;65156;-77
2020/12/13 01:21:49;;;;;;;80.63;45.57;;;;;;;0.53;90.53;98251.65;125114;1098;65227;-78
2020/12/13 01:24:19;;;;;;;84.97;46.37;;;;;;;0.51;90.26;98253.47;125211;1098;65121;-78
2020/12/13 01:26:45;;;;;;;77.40;41.17;;;;;;;0.49;89.79;98244.80;125107;1098;65082;-78
2020/12/13 01:29:12;;;;;;;69.73;39.57;;;;;;;0.49;90.18;98242.17;125128;1098;65144;-78
2020/12/13 01:31:41;;;;;;;65.73;37.10;;;;;;;0.53;90.74;98242.94;125189;1098;65256;-78
2020/12/13 01:34:07;;;;;;;67.20;35.25;;;;;;;0.57;90.36;98249.75;125175;1098;65147;-78
2020/12/13 01:36:35;;;;;;;69.67;37.47;;;;;;;0.58;90.71;98246.20;125248;1098;65258;-78
2020/12/13 01:39:03;;;;;;;63.03;35.10;;;;;;;0.60;90.72;98249.63;125254;1098;65169;-78
2020/12/13 01:41:30;;;;;;;65.85;37.00;;;;;;;0.58;90.43;98246.20;124835;1099;65182;-78
2020/12/13 01:44:01;;;;;;;66.90;39.83;;;;;;;0.52;90.12;98244.67;124799;1100;65176;-78
2020/12/13 01:46:29;;;;;;;72.10;40.43;;;;;;;0.54;90.32;98250.72;125265;1098;65171;-78
2020/12/13 01:49:00;;;;;;;68.87;38.00;;;;;;;0.53;90.38;98251.65;125174;1098;65201;-78
2020/12/13 01:54:24;;;;;;;60.80;34.87;;;;;;;0.51;90.43;98260.48;125213;1098;65159;-78
2020/12/13 01:56:56;;;;;;;68.80;36.80;;;;;;;0.55;89.96;98257.66;125270;1098;65169;-78
2020/12/13 01:59:25;;;;;;;61.27;36.13;;;;;;;0.57;90.43;98258.46;125326;1098;65275;-78
2020/12/13 02:02:04;;;;;;;64.83;34.57;;;;;;;0.57;90.50;98257.61;125169;1098;65127;-78
2020/12/13 02:04:34;;;;;;;69.35;36.90;;;;;;;0.57;90.33;98253.22;125282;1098;65150;-78
2020/12/13 02:07:04;;;;;;;63.33;37.57;;;;;;;0.58;90.47;98257.57;125148;1098;65149;-76
2020/12/13 02:09:30;;;;;;;67.65;41.55;;;;;;;0.57;90.32;98255.84;125067;1098;65147;-76
2020/12/13 02:11:58;;;;;;;65.20;36.33;;;;;;;0.58;90.56;98254.06;125212;1099;65213;-76
2020/12/13 02:14:26;;;;;;;64.95;37.90;;;;;;;0.60;90.12;98254.87;125182;1098;65222;-77
2020/12/13 02:16:52;;;;;;;67.67;36.93;;;;;;;0.68;90.50;98257.20;125162;1098;65202;-77
2020/12/13 02:19:20;;;;;;;65.27;37.07;;;;;;;0.72;90.58;98262.27;125150;1099;65226;-77
2020/12/13 02:21:49;;;;;;;73.60;41.17;;;;;;;0.71;89.88;98255.33;125145;1098;65147;-78
2020/12/13 02:24:16;;;;;;;67.33;39.20;;;;;;;0.66;90.24;98259.90;125199;1098;65146;-77
2020/12/13 02:26:44;;;;;;;75.80;38.50;;;;;;;0.66;90.30;98262.52;125237;1098;65293;-78
2020/12/13 02:29:12;;;;;;;69.90;37.80;;;;;;;0.69;90.52;98267.64;125304;1098;65160;-78
2020/12/13 02:31:40;;;;;;;65.47;36.83;;;;;;;0.74;90.00;98262.19;125281;1098;65137;-78
2020/12/13 02:34:06;;;;;;;60.15;35.00;;;;;;;0.76;90.76;98257.75;125166;1099;65160;-78
2020/12/13 02:36:33;;;;;;;64.90;37.13;;;;;;;0.75;90.12;98264.77;124805;1098;65169;-78
2020/12/13 02:39:00;;;;;;;69.40;37.83;;;;;;;0.71;90.09;98265.82;125155;1098;65214;-78
2020/12/13 02:41:27;;;;;;;65.07;36.37;;;;;;;0.71;90.51;98265.82;125268;1098;65128;-78
2020/12/13 02:43:53;;;;;;;69.20;38.73;;;;;;;0.69;90.00;98267.64;125115;1100;65193;-78
2020/12/13 02:46:20;;;;;;;78.10;41.63;;;;;;;0.67;90.37;98260.75;124777;1100;65207;-78
2020/12/13 02:48:46;;;;;;;69.07;36.30;;;;;;;0.65;90.13;98264.27;124794;1099;65290;-78
2020/12/13 02:51:13;;;;;;;64.67;38.00;;;;;;;0.64;89.99;98265.19;125183;1098;65219;-78
2020/12/13 02:53:39;;;;;;;67.27;38.23;;;;;;;0.65;90.18;98266.03;125165;1098;65144;-78
2020/12/13 02:56:05;;;;;;;73.53;39.43;;;;;;;0.64;89.80;98259.95;125237;1098;65463;-78
2020/12/13 02:58:32;;;;;;;78.35;44.25;;;;;;;0.68;90.03;98271.16;125224;1099;65077;-78
2020/12/13 03:00:59;;;;;;;81.00;44.88;;;;;;;0.68;90.04;98276.41;125216;1098;65137;-78
2020/12/13 03:03:25;;;;;;;85.57;45.83;;;;;;;0.67;90.53;98273.86;125185;1098;65201;-77
2020/12/13 03:05:51;;;;;;;83.17;44.80;;;;;;;0.65;89.87;98279.15;125203;1098;65205;-77
2020/12/13 03:08:18;;;;;;;82.40;43.67;;;;;;;0.63;90.55;98280.97;125199;1098;65140;-78
2020/12/13 03:10:44;;;;;;;78.10;41.23;;;;;;;0.63;89.86;98280.97;125170;1098;65150;-78
2020/12/13 03:13:11;;;;;;;77.05;40.60;;;;;;;0.61;90.15;98278.42;124845;1098;65190;-79
2020/12/13 03:15:37;;;;;;;68.40;39.77;;;;;;;0.64;90.07;98274.83;125241;1098;65153;-77
2020/12/13 03:18:04;;;;;;;76.70;40.20;;;;;;;0.70;90.42;98274.58;125123;1098;65220;-78
2020/12/13 03:20:30;;;;;;;84.40;43.95;;;;;;;0.74;90.14;98283.17;125148;1098;65111;-78
2020/12/13 03:22:56;;;;;;;79.63;41.30;;;;;;;0.72;89.92;98282.41;124822;1098;65236;-77
2020/12/13 03:25:23;;;;;;;77.37;41.10;;;;;;;0.67;90.03;98279.95;125154;1098;65242;-76
2020/12/13 03:27:50;;;;;;;71.67;39.10;;;;;;;0.62;89.80;98282.73;125233;1098;65233;-76
2020/12/13 03:30:16;;;;;;;79.03;40.33;;;;;;;0.61;89.89;98285.44;125174;1098;65156;-77
2020/12/13 03:32:42;;;;;;;72.75;40.45;;;;;;;0.59;89.86;98282.86;125172;1098;65230;-77
2020/12/13 03:35:09;;;;;;;72.30;40.87;;;;;;;0.62;90.50;98282.73;124838;1099;65165;-77
2020/12/13 03:37:35;;;;;;;80.47;40.90;;;;;;;0.62;89.99;98293.23;125218;1098;65138;-77
2020/12/13 03:40:02;;;;;;;73.87;42.15;;;;;;;0.63;90.66;98288.83;125298;1099;65134;-77
2020/12/13 03:42:29;;;;;;;74.77;42.33;;;;;;;0.59;90.28;98285.48;125196;1098;65511;-77
2020/12/13 03:44:55;;;;;;;80.57;44.57;;;;;;;0.56;90.12;98293.47;125199;1098;65171;-76
2020/12/13 03:47:21;;;;;;;72.67;41.77;;;;;;;0.56;90.04;98296.09;125237;1098;65134;-77
2020/12/13 03:49:48;;;;;;;64.93;37.87;;;;;;;0.56;90.28;98300.48;125167;1098;65264;-77
2020/12/13 03:52:14;;;;;;;60.93;36.03;;;;;;;0.58;90.65;98299.52;125160;1098;65182;-77
2020/12/13 03:54:41;;;;;;;64.53;36.03;;;;;;;0.56;90.07;98300.48;125182;1098;65245;-76
2020/12/13 03:57:07;;;;;;;65.50;36.73;;;;;;;0.52;90.26;98304.97;125123;1098;65230;-77
2020/12/13 03:59:33;;;;;;;67.17;36.77;;;;;;;0.50;89.83;98300.70;125229;1098;65233;-78
2020/12/13 04:02:04;;;;;;;73.27;40.07;;;;;;;0.47;90.04;98301.66;125166;1099;65227;-78
2020/12/13 04:04:30;;;;;;;67.83;41.07;;;;;;;0.44;90.03;98300.02;125127;1098;65240;-77
2020/12/13 04:06:57;;;;;;;68.53;39.57;;;;;;;0.45;90.28;98306.14;125079;1098;65195;-77
2020/12/13 04:09:24;;;;;;;95.95;67.05;;;;;;;0.47;90.33;98306.91;124866;1098;65143;-77
2020/12/13 04:11:51;;;;;;;81.00;54.47;;;;;;;0.46;90.15;98307.83;125214;1098;65220;-78
2020/12/13 04:14:17;;;;;;;65.87;40.70;;;;;;;0.51;90.58;98310.30;125146;1098;65214;-78
2020/12/13 04:16:44;;;;;;;71.97;50.53;;;;;;;0.54;90.64;98307.55;125127;1098;65653;-78
2020/12/13 04:19:11;;;;;;;86.60;59.70;;;;;;;0.55;90.30;98309.25;125181;1098;65299;-78
2020/12/13 04:21:38;;;;;;;76.03;45.73;;;;;;;0.55;90.28;98310.09;125145;1099;65127;-78
2020/12/13 04:24:05;;;;;;;119.27;78.13;;;;;;;0.53;90.54;98314.56;125168;1098;65306;-78
2020/12/13 04:26:34;;;;;;;91.70;57.90;;;;;;;0.51;90.41;98312.91;124805;1099;65143;-78
2020/12/13 04:29:01;;;;;;;96.20;60.58;;;;;;;0.48;90.54;98323.52;125162;1100;65264;-78
2020/12/13 04:31:27;;;;;;;75.80;48.40;;;;;;;0.47;90.11;98322.64;125172;1098;65194;-78
2020/12/13 04:33:53;;;;;;;76.50;47.97;;;;;;;0.49;90.45;98328.69;125174;1100;65166;-78
2020/12/13 04:36:20;;;;;;;76.17;50.13;;;;;;;0.52;90.86;98331.19;125238;1098;65194;-78
2020/12/13 04:38:46;;;;;;;82.20;54.87;;;;;;;0.56;90.47;98335.42;125238;1098;65099;-78
2020/12/13 04:41:13;;;;;;;72.67;45.90;;;;;;;0.59;90.39;98335.30;125158;1098;65564;-78
2020/12/13 04:43:39;;;;;;;62.67;37.27;;;;;;;0.59;90.47;98335.30;125185;1098;65281;-78
2020/12/13 04:46:07;;;;;;;73.03;42.93;;;;;;;0.58;90.58;98333.60;125252;1098;65147;-78
2020/12/13 04:48:34;;;;;;;67.83;40.13;;;;;;;0.58;90.56;98332.72;125180;1098;65169;-78
2020/12/13 04:51:01;;;;;;;66.73;41.50;;;;;;;0.60;90.64;98337.00;125192;1098;65195;-78
2020/12/13 04:53:31;;;;;;;66.85;42.60;;;;;;;0.65;90.45;98344.70;125165;1098;65226;-78
2020/12/13 04:55:59;;;;;;;65.73;41.90;;;;;;;0.63;90.35;98342.16;125260;1098;65155;-77
2020/12/13 04:58:28;;;;;;;74.63;45.67;;;;;;;0.63;90.31;98344.78;125163;1099;65239;-78
2020/12/13 05:01:02;;;;;;;90.97;56.23;;;;;;;0.64;90.57;98341.23;125253;1099;65176;-78
2020/12/13 05:03:30;;;;;;;78.13;48.03;;;;;;;0.60;90.84;98341.39;125210;1098;65130;-77
2020/12/13 05:06:01;;;;;;;85.93;49.40;;;;;;;0.58;90.48;98346.71;125192;1098;65233;-78
2020/12/13 05:08:29;;;;;;;82.93;47.77;;;;;;;0.61;90.26;98345.75;125151;1099;65275;-78
2020/12/13 05:10:56;;;;;;;70.57;44.77;;;;;;;0.62;90.77;98357.93;125214;1098;65144;-78
2020/12/13 05:13:22;;;;;;;72.75;46.15;;;;;;;0.64;90.11;98356.96;125179;1098;65150;-78
2020/12/13 05:15:49;;;;;;;62.80;36.87;;;;;;;0.65;90.44;98352.56;125155;1098;65200;-77
2020/12/13 05:18:16;;;;;;;63.80;43.70;;;;;;;0.65;90.76;98356.04;125236;1098;65153;-78
2020/12/13 05:20:45;;;;;;;73.70;50.75;;;;;;;0.64;90.37;98361.36;125259;1098;65153;-78
2020/12/13 05:23:12;;;;;;;63.07;38.27;;;;;;;0.65;90.86;98360.44;125256;1098;65239;-77
2020/12/13 05:25:39;;;;;;;60.67;36.03;;;;;;;0.61;90.61;98359.70;125235;1098;65446;-77
2020/12/13 05:28:08;;;;;;;57.50;35.95;;;;;;;0.59;90.18;98361.52;125241;1098;65192;-77
2020/12/13 05:30:41;;;;;;;60.47;37.70;;;;;;;0.59;90.37;98364.14;124812;1098;65204;-78
2020/12/13 05:33:16;;;;;;;61.37;38.10;;;;;;;0.57;90.47;98378.22;125185;1099;65269;-77
2020/12/13 05:35:42;;;;;;;53.15;35.20;;;;;;;0.56;90.38;98373.90;125084;1098;65159;-80
2020/12/13 05:38:11;;;;;;;54.20;35.80;;;;;;;0.56;90.46;98376.52;125237;1098;65514;-77
2020/12/13 05:40:38;;;;;;;58.63;37.90;;;;;;;0.59;90.36;98371.16;124876;1099;65246;-78
2020/12/13 05:43:11;;;;;;;61.13;37.93;;;;;;;0.63;90.34;98384.11;125189;1099;65258;-78
2020/12/13 05:49:05;;;;;;;53.95;34.35;;;;;;;0.67;90.11;98381.37;124814;1098;65156;-82
2020/12/13 05:53:38;;;;;;;48.90;31.65;;;;;;;0.69;90.38;98390.04;125188;1098;65257;-78
2020/12/13 05:56:04;;;;;;;51.00;32.95;;;;;;;0.71;90.16;98393.44;125208;1099;65611;-79
2020/12/13 05:58:31;;;;;;;46.73;30.80;;;;;;;0.77;90.42;98390.61;125188;1098;65131;-78
2020/12/13 06:00:58;;;;;;;51.20;32.97;;;;;;;0.75;90.76;98393.27;125200;1098;65127;-78
2020/12/13 06:03:34;;;;;;;54.97;35.80;;;;;;;0.73;90.37;98392.47;125256;1098;65303;-78
2020/12/13 06:06:10;;;;;;;52.87;36.37;;;;;;;0.75;90.66;98395.05;125209;1098;65133;-78
2020/12/13 06:08:55;;;;;;;72.73;50.07;;;;;;;0.71;90.08;98393.44;125170;1098;65140;-78
2020/12/13 06:11:22;;;;;;;57.60;42.30;;;;;;;0.68;90.13;98396.17;125290;1098;65144;-78
2020/12/13 06:13:54;;;;;;;43.23;29.50;;;;;;;0.67;90.70;98395.33;125174;1098;65136;-78
2020/12/13 06:16:22;;;;;;;44.97;29.30;;;;;;;0.66;90.41;98398.88;124805;1098;65204;-78
2020/12/13 06:18:49;;;;;;;49.57;32.30;;;;;;;0.64;90.34;98401.54;125216;1098;65146;-78
2020/12/13 06:21:17;;;;;;;52.40;33.60;;;;;;;0.63;90.58;98401.58;125161;1099;65249;-78
2020/12/13 06:23:47;;;;;;;51.30;31.25;;;;;;;0.60;90.43;98406.94;125245;1098;65144;-78
2020/12/13 06:26:13;;;;;;;49.50;33.67;;;;;;;0.60;90.56;98404.32;125269;1098;65134;-78
2020/12/13 06:28:40;;;;;;;48.87;31.60;;;;;;;0.59;90.26;98407.86;125146;1098;65172;-78
2020/12/13 06:31:07;;;;;;;50.50;30.15;;;;;;;0.58;90.67;98406.13;125167;1098;65172;-78
2020/12/13 06:33:41;;;;;;;50.30;31.47;;;;;;;0.59;90.70;98406.09;124770;1100;65236;-78
2020/12/13 06:36:09;;;;;;;49.73;32.63;;;;;;;0.61;90.53;98408.67;124815;1100;65209;-78
2020/12/13 06:38:36;;;;;;;48.60;31.25;;;;;;;0.64;90.34;98413.80;125226;1098;65098;-78
2020/12/13 06:41:11;;;;;;;53.90;33.40;;;;;;;0.66;90.75;98414.61;125220;1098;65296;-78
2020/12/13 06:43:41;;;;;;;50.57;32.93;;;;;;;0.67;90.24;98425.95;125223;1098;65242;-79
2020/12/13 06:46:16;;;;;;;47.23;31.27;;;;;;;0.64;90.17;98433.00;125211;1099;65182;-78
2020/12/13 06:48:43;;;;;;;50.60;31.40;;;;;;;0.63;90.57;98431.30;125150;1098;65328;-77
2020/12/13 06:51:11;;;;;;;47.50;31.27;;;;;;;0.62;90.59;98428.72;124780;1100;65149;-78
2020/12/13 06:53:37;;;;;;;49.10;33.87;;;;;;;0.62;90.70;98434.82;125170;1098;65166;-78
2020/12/13 06:56:09;;;;;;;56.63;37.40;;;;;;;0.65;90.31;98439.09;125167;1098;65171;-78
2020/12/13 06:58:43;;;;;;;60.35;36.35;;;;;;;0.67;90.34;98439.91;125292;1098;65473;-78
2020/12/13 07:01:18;;;;;;;51.65;33.85;;;;;;;0.68;90.03;98443.38;125258;1098;65149;-78
2020/12/13 07:03:50;;;;;;;54.90;35.40;;;;;;;0.65;90.59;98436.48;125239;1098;65176;-78
2020/12/13 07:06:25;;;;;;;51.33;34.93;;;;;;;0.65;90.68;98449.59;125251;1098;65380;-77
2020/12/13 07:08:56;;;;;;;48.65;33.95;;;;;;;0.68;90.77;98444.23;125226;1098;65143;-77
2020/12/13 07:11:25;;;;;;;54.10;33.20;;;;;;;0.69;90.15;98447.73;125179;1098;65175;-77
2020/12/13 07:13:52;;;;;;;58.33;36.57;;;;;;;0.72;90.56;98448.47;125160;1098;65197;-77
2020/12/13 07:16:41;;;;;;;59.63;37.60;;;;;;;0.74;90.45;98448.39;125302;1098;65120;-77
2020/12/13 07:19:09;;;;;;;64.50;39.80;;;;;;;0.69;90.47;98453.83;125177;1098;65344;-78
2020/12/13 07:21:38;;;;;;;71.60;42.37;;;;;;;0.69;90.33;98460.84;125190;1098;65234;-78
2020/12/13 07:24:06;;;;;;;62.03;40.80;;;;;;;0.70;90.11;98463.39;125234;1098;65201;-78
2020/12/13 07:26:34;;;;;;;62.17;38.87;;;;;;;0.69;90.20;98463.47;125267;1098;65152;-77
2020/12/13 07:29:03;;;;;;;62.37;37.17;;;;;;;0.68;90.21;98465.20;125333;1098;65217;-83
2020/12/13 07:31:35;;;;;;;61.67;40.83;;;;;;;0.71;90.10;98472.99;125195;1100;65214;-84
2020/12/13 07:34:06;;;;;;;61.00;38.47;;;;;;;0.75;90.07;98471.95;125320;1099;65232;-84
2020/12/13 07:36:34;;;;;;;59.70;40.90;;;;;;;0.81;90.58;98470.88;125387;1098;65150;-82
2020/12/13 07:39:04;;;;;;;57.47;38.43;;;;;;;0.84;90.26;98476.01;125140;1100;65265;-83
2020/12/13 07:41:31;;;;;;;59.90;37.20;;;;;;;0.86;89.92;98482.91;125307;1098;65186;-79
2020/12/13 07:44:00;;;;;;;64.65;40.05;;;;;;;0.86;89.76;98490.78;125009;1100;65266;-81
2020/12/13 07:46:29;;;;;;;56.58;35.55;;;;;;;0.86;90.24;98487.31;125405;1098;65112;-80
2020/12/13 07:49:20;;;;;;;49.47;34.73;;;;;;;0.86;90.35;98488.16;125337;1098;65150;-82
2020/12/13 07:51:52;;;;;;;54.33;35.30;;;;;;;0.90;89.85;98491.55;125411;1098;65127;-83
2020/12/13 07:54:18;;;;;;;51.10;35.40;;;;;;;0.93;90.06;98494.05;125417;1100;65239;-84
2020/12/13 07:56:48;;;;;;;56.37;38.27;;;;;;;0.96;90.19;98496.56;125468;1098;65287;-83
2020/12/13 07:59:19;;;;;;;56.37;41.03;;;;;;;1.00;89.89;98499.92;125098;1098;65133;-84
2020/12/13 08:01:52;;;;;;;63.07;40.87;;;;;;;1.01;90.16;98499.03;125554;1093;65172;-82
2020/12/13 08:04:38;;;;;;;60.47;40.97;;;;;;;0.99;89.45;98503.47;125051;1100;65140;-82
2020/12/13 08:07:10;;;;;;;55.30;37.83;;;;;;;0.99;89.81;98504.31;125392;1098;65232;-84
2020/12/13 08:09:44;;;;;;;52.13;38.70;;;;;;;1.00;89.76;98506.05;125382;1098;65297;-81
2020/12/13 08:12:13;;;;;;;50.43;36.30;;;;;;;1.00;89.85;98508.67;125425;1098;65259;-83
2020/12/13 08:14:40;;;;;;;49.75;34.90;;;;;;;1.02;89.69;98508.59;125041;1100;65213;-84
2020/12/13 08:17:07;;;;;;;51.17;35.43;;;;;;;1.03;89.95;98505.08;125302;1098;65248;-79
2020/12/13 08:19:41;;;;;;;51.23;35.93;;;;;;;1.03;89.56;98505.08;125228;1098;65255;-79
2020/12/13 08:22:14;;;;;;;52.23;36.77;;;;;;;1.04;89.80;98507.63;125167;1098;65243;-79
2020/12/13 08:24:43;;;;;;;53.43;35.03;;;;;;;1.03;89.54;98505.08;125246;1099;65072;-85
2020/12/13 08:27:11;;;;;;;49.53;33.47;;;;;;;1.02;89.33;98509.45;125384;1098;65165;-82
2020/12/13 08:29:38;;;;;;;49.40;32.87;;;;;;;1.04;89.23;98505.00;125427;1098;65131;-82
2020/12/13 08:32:13;;;;;;;50.50;35.50;;;;;;;1.11;89.92;98521.41;125279;1098;65168;-83
2020/12/13 08:34:40;;;;;;;50.23;36.13;;;;;;;1.16;89.92;98524.72;125392;1099;65217;-87
2020/12/13 08:37:07;;;;;;;52.23;35.33;;;;;;;1.17;89.25;98522.94;125243;1098;65658;-86
2020/12/13 08:39:36;;;;;;;53.57;35.70;;;;;;;1.17;89.81;98526.41;125252;1098;65155;-78
2020/12/13 08:42:06;;;;;;;50.80;33.77;;;;;;;1.18;89.54;98524.64;124867;1100;65152;-79
2020/12/13 08:44:41;;;;;;;43.83;30.87;;;;;;;1.18;89.58;98533.36;124860;1100;65137;-79
2020/12/13 08:47:10;;;;;;;49.90;31.33;;;;;;;1.16;88.82;98529.08;124819;1100;65226;-79
2020/12/13 08:49:41;;;;;;;43.47;30.47;;;;;;;1.17;89.20;98534.29;125190;1098;65255;-79
2020/12/13 08:52:35;;;;;;;50.03;32.93;;;;;;;1.24;89.49;98540.19;125203;1098;65309;-79
2020/12/13 08:55:06;;;;;;;55.47;40.70;;;;;;;1.30;89.51;98543.42;125232;1098;65137;-78
2020/12/13 08:57:36;;;;;;;50.40;37.37;;;;;;;1.31;89.05;98533.77;125272;1098;65252;-77
2020/12/13 09:00:11;;;;;;;50.50;35.30;;;;;;;1.30;89.41;98540.80;125312;1099;65247;-83
2020/12/13 09:02:38;;;;;;;51.80;35.23;;;;;;;1.30;89.00;98546.05;125053;1098;65235;-84
2020/12/13 09:05:07;;;;;;;54.80;37.17;;;;;;;1.33;88.84;98554.73;124985;1100;65165;-82
2020/12/13 09:07:35;;;;;;;51.67;34.87;;;;;;;1.39;89.30;98544.84;125318;1098;65158;-80
2020/12/13 09:10:12;;;;;;;50.50;36.60;;;;;;;1.46;88.86;98543.72;124947;1100;65077;-83
2020/12/13 09:12:40;;;;;;;57.67;38.33;;;;;;;1.48;89.20;98544.52;125392;1098;65134;-77
2020/12/13 09:15:15;;;;;;;59.10;40.10;;;;;;;1.51;88.85;98539.15;125131;1098;65173;-78
2020/12/13 09:17:55;;;;;;;63.65;40.70;;;;;;;1.54;88.62;98538.18;125097;1098;65243;-78
2020/12/13 09:20:28;;;;;;;;;;;;;;;1.52;88.64;98540.00;125503;1098;65139;-81
2020/12/13 09:23:05;;;;;;;51.87;37.43;;;;;;;1.49;88.87;98535.72;125166;1098;65197;-81
2020/12/13 09:25:41;;;;;;;48.57;34.17;;;;;;;1.52;88.85;98540.84;124847;1100;65297;-81
2020/12/13 09:28:09;;;;;;;52.53;33.60;;;;;;;1.59;88.57;98543.27;125257;1100;65230;-81
2020/12/13 09:30:37;;;;;;;45.47;32.70;;;;;;;1.63;88.69;98543.06;125160;1098;65228;-81
2020/12/13 09:33:04;;;;;;;44.60;32.10;;;;;;;1.65;88.42;98546.50;125317;1098;65134;-86
2020/12/13 09:35:31;;;;;;;43.13;30.53;;;;;;;1.72;88.77;98545.36;124873;1100;65086;-83
2020/12/13 09:38:02;;;;;;;55.60;41.77;;;;;;;1.77;88.28;98547.81;125207;1099;65178;-81
2020/12/13 09:40:30;;;;;;;60.37;51.23;;;;;;;1.81;88.26;98548.55;125349;1099;65239;-84
2020/12/13 09:42:57;;;;;;;43.80;35.00;;;;;;;1.83;88.44;98554.60;125237;1098;65179;-85
2020/12/13 09:45:23;;;;;;;44.20;35.40;;;;;;;1.84;88.14;98551.05;125390;1098;65251;-85
2020/12/13 09:47:55;;;;;;;42.07;32.93;;;;;;;1.87;88.02;98559.69;124855;1100;65163;-83
2020/12/13 09:50:27;;;;;;;64.77;48.87;;;;;;;1.84;88.25;98554.52;125385;1098;65293;-81
2020/12/13 09:52:54;;;;;;;63.85;46.45;;;;;;;1.86;87.91;98555.33;125314;1098;65150;-83
2020/12/13 09:55:21;;;;;;;43.63;30.90;;;;;;;1.89;88.06;98549.09;125213;1098;65189;-85
2020/12/13 09:57:47;;;;;;;40.95;27.45;;;;;;;1.96;87.87;98543.55;124887;1099;65268;-83
2020/12/13 10:00:14;;;;;;;31.63;25.27;;;;;;;2.02;88.25;98542.44;125235;1098;65143;-81
2020/12/13 10:02:42;;;;;;;34.87;31.13;;;;;;;2.05;87.88;98538.84;124910;1100;65194;-84
2020/12/13 10:05:19;;;;;;;36.75;31.50;;;;;;;2.03;87.71;98544.17;124881;1099;65115;-82
2020/12/13 10:10:13;;;;;;;34.00;26.85;;;;;;;2.02;87.74;98555.58;125317;1098;65162;-85
2020/12/13 10:12:39;;;;;;;33.95;30.30;;;;;;;1.99;87.88;98547.83;125193;1098;65114;-80
2020/12/13 10:15:06;;;;;;;27.80;23.20;;;;;;;2.02;87.84;98545.07;125216;1098;65172;-80
2020/12/13 10:17:32;;;;;;;30.73;25.40;;;;;;;2.03;87.14;98544.17;125252;1098;65313;-80
2020/12/13 10:19:59;;;;;;;31.67;26.47;;;;;;;2.07;87.74;98547.52;125174;1100;65229;-90
2020/12/13 10:22:25;;;;;;;34.15;29.75;;;;;;;2.04;87.37;98539.77;125175;1098;65172;-78
2020/12/13 10:24:52;;;;;;;37.83;29.43;;;;;;;2.03;87.35;98544.17;125234;1098;65143;-78
2020/12/13 10:27:18;;;;;;;41.30;31.10;;;;;;;2.02;87.78;98537.19;125143;1098;65252;-80
2020/12/13 10:29:45;;;;;;;36.17;31.23;;;;;;;2.03;87.89;98538.92;124883;1098;65235;-78
2020/12/13 10:32:11;;;;;;;31.90;24.20;;;;;;;1.98;87.10;98543.50;125129;1098;65185;-84
2020/12/13 10:34:37;;;;;;;35.43;26.27;;;;;;;1.92;87.11;98538.46;125237;1098;65150;-83
2020/12/13 10:37:04;;;;;;;34.80;28.00;;;;;;;1.93;87.27;98546.30;125198;1098;65217;-79
2020/12/13 10:39:30;;;;;;;37.45;27.15;;;;;;;1.95;87.03;98554.14;124875;1099;65150;-82
2020/12/13 10:41:57;;;;;;;28.25;21.35;;;;;;;1.96;87.38;98548.80;125330;1098;65230;-80
2020/12/13 10:44:23;;;;;;;29.50;20.50;;;;;;;1.97;86.73;98550.53;125675;1099;65077;-89
2020/12/13 10:46:50;;;;;;;32.80;22.00;;;;;;;1.89;87.00;98552.58;124953;1100;65246;-90
2020/12/13 10:49:16;;;;;;;34.03;25.93;;;;;;;1.88;86.96;98547.40;125308;1098;65128;-84
2020/12/13 10:51:43;;;;;;;33.30;24.57;;;;;;;1.87;87.33;98553.55;126100;1098;65320;-93
2020/12/13 10:54:09;;;;;;;28.90;22.53;;;;;;;1.83;86.84;98547.56;125040;1100;65163;-87
2020/12/13 10:56:36;;;;;;;34.27;24.67;;;;;;;1.82;87.10;98551.13;125199;1099;65238;-83
2020/12/13 10:59:03;;;;;;;34.97;26.07;;;;;;;1.83;87.34;98551.97;125220;1098;65156;-83
2020/12/13 11:01:29;;;;;;;35.20;25.80;;;;;;;1.83;87.01;98560.70;124874;1098;65537;-83
2020/12/13 11:03:56;;;;;;;36.43;26.77;;;;;;;1.86;86.90;98559.73;125202;1098;65178;-83
2020/12/13 11:06:22;;;;;;;50.93;37.10;;;;;;;1.86;87.41;98560.58;125259;1098;65141;-83
2020/12/13 11:08:49;;;;;;;47.55;38.10;;;;;;;1.82;87.11;98558.13;124876;1098;65197;-83
2020/12/13 11:11:20;;;;;;;42.55;33.00;;;;;;;1.79;87.24;98552.99;125220;1098;65150;-83
2020/12/13 11:13:47;;;;;;;40.67;35.93;;;;;;;1.75;86.74;98554.89;125233;1098;65189;-84
2020/12/13 11:16:13;;;;;;;38.10;32.50;;;;;;;1.74;87.42;98555.82;124894;1099;65246;-83
2020/12/13 11:18:40;;;;;;;42.35;36.30;;;;;;;1.74;87.18;98554.05;125260;1098;65153;-84
2020/12/13 11:21:06;;;;;;;38.10;29.23;;;;;;;1.79;86.94;98560.87;125305;1098;65152;-84
2020/12/13 11:23:33;;;;;;;38.97;26.93;;;;;;;1.82;87.40;98560.75;125337;1098;65159;-84
2020/12/13 11:25:59;;;;;;;37.70;26.03;;;;;;;1.83;87.19;98559.86;124941;1100;65221;-84
2020/12/13 11:28:27;;;;;;;37.90;27.30;;;;;;;1.82;87.33;98561.63;125305;1098;65313;-84
2020/12/13 11:30:53;;;;;;;60.87;43.17;;;;;;;1.75;86.73;98558.37;125250;1099;65178;-88
2020/12/13 11:33:20;;;;;;;46.63;33.10;;;;;;;1.74;87.16;98559.30;125769;1098;65265;-84